createdAt,value
2018-08-24T00:00:34.457Z,99713.27
2018-08-24T00:03:02.957Z,99723.59
2018-08-24T00:05:31.616Z,99720.05
2018-08-24T00:08:00.063Z,99718.56
2018-08-24T00:10:28.569Z,99715.45
2018-08-24T00:12:57.195Z,99714.00
2018-08-24T00:15:25.751Z,99717.88
2018-08-24T00:17:54.204Z,99717.16
2018-08-24T00:20:22.915Z,99708.12
2018-08-24T00:22:51.407Z,99705.45
2018-08-24T00:25:19.903Z,99703.03
2018-08-24T00:27:48.776Z,99703.77
2018-08-24T00:30:17.209Z,99701.09
2018-08-24T00:32:45.679Z,99700.02
2018-08-24T00:35:14.368Z,99695.69
2018-08-24T00:37:42.887Z,99703.20
2018-08-24T00:40:11.390Z,99706.61
2018-08-24T00:42:40.131Z,99699.89
2018-08-24T00:45:08.620Z,99697.53
2018-08-24T00:47:37.093Z,99694.32
2018-08-24T00:50:05.885Z,99704.91
2018-08-24T00:52:34.363Z,99704.77
2018-08-24T00:55:02.847Z,99709.20
2018-08-24T00:57:31.427Z,99706.63
2018-08-24T00:59:59.991Z,99711.06
2018-08-24T01:02:28.439Z,99709.59
2018-08-24T01:04:57.035Z,99710.18
2018-08-24T01:07:25.529Z,99717.19
2018-08-24T01:09:54.039Z,99718.05
2018-08-24T01:12:22.695Z,99717.50
2018-08-24T01:14:51.140Z,99720.98
2018-08-24T01:17:25.728Z,99713.13
2018-08-24T01:19:54.158Z,99711.48
2018-08-24T01:22:22.635Z,99715.13
2018-08-24T01:24:51.167Z,99704.22
2018-08-24T01:27:19.652Z,99704.80
2018-08-24T01:29:48.128Z,99705.84
2018-08-24T01:32:16.904Z,99709.52
2018-08-24T01:34:45.457Z,99706.39
2018-08-24T01:37:14.027Z,99709.37
2018-08-24T01:39:42.500Z,99705.56
2018-08-24T01:42:11.076Z,99717.00
2018-08-24T01:44:39.688Z,99712.68
2018-08-24T01:47:08.259Z,99713.91
2018-08-24T01:49:36.684Z,99706.05
2018-08-24T01:52:05.150Z,99705.66
2018-08-24T01:54:33.762Z,99707.80
2018-08-24T01:57:02.186Z,99698.89
2018-08-24T01:59:30.619Z,99698.13
2018-08-24T02:01:59.163Z,99708.77
2018-08-24T02:04:27.741Z,99700.59
2018-08-24T02:06:56.260Z,99711.42
2018-08-24T02:09:24.942Z,99709.66
2018-08-24T02:11:53.495Z,99706.30
2018-08-24T02:14:27.393Z,99702.80
2018-08-24T02:16:55.780Z,99709.86
2018-08-24T02:19:29.465Z,99702.53
2018-08-24T02:22:03.175Z,99707.80
2018-08-24T02:24:31.972Z,99703.04
2018-08-24T02:27:00.491Z,99703.48
2018-08-24T02:29:28.923Z,99705.80
2018-08-24T02:31:57.387Z,99704.37
2018-08-24T02:34:25.898Z,99706.86
2018-08-24T02:36:54.384Z,99705.80
2018-08-24T02:39:22.839Z,99702.29
2018-08-24T02:41:51.399Z,99704.95
2018-08-24T02:44:19.784Z,99706.23
2018-08-24T02:46:48.276Z,99709.58
2018-08-24T02:49:16.737Z,99711.55
2018-08-24T02:51:45.167Z,99708.73
2018-08-24T02:54:13.655Z,99713.73
2018-08-24T02:56:42.123Z,99701.72
2018-08-24T02:59:10.563Z,99707.23
2018-08-24T03:01:39.157Z,99707.28
2018-08-24T03:04:07.628Z,99702.15
2018-08-24T03:06:36.191Z,99708.40
2018-08-24T03:09:08.299Z,99700.53
2018-08-24T03:11:36.768Z,99700.24
2018-08-24T03:14:05.208Z,99701.35
2018-08-24T03:16:33.855Z,99699.97
2018-08-24T03:19:02.359Z,99698.13
2018-08-24T03:21:30.855Z,99697.04
2018-08-24T03:23:59.509Z,99694.95
2018-08-24T03:26:28.072Z,99693.41
2018-08-24T03:28:56.551Z,99693.92
2018-08-24T03:31:25.018Z,99695.13
2018-08-24T03:33:53.467Z,99698.94
2018-08-24T03:36:21.899Z,99702.95
2018-08-24T03:38:50.784Z,99703.87
2018-08-24T03:41:19.199Z,99708.69
2018-08-24T03:43:47.663Z,99709.52
2018-08-24T03:46:16.180Z,99707.99
2018-08-24T03:48:44.686Z,99715.11
2018-08-24T03:51:13.131Z,99710.59
2018-08-24T03:53:41.599Z,99709.96
2018-08-24T03:56:10.032Z,99710.97
2018-08-24T03:58:38.572Z,99714.04
2018-08-24T04:01:07.331Z,99709.81
2018-08-24T04:03:35.869Z,99710.10
2018-08-24T04:06:04.315Z,99715.55
2018-08-24T04:08:33.038Z,99713.45
2018-08-24T04:11:01.557Z,99719.53
2018-08-24T04:13:30.024Z,99723.11
2018-08-24T04:15:58.687Z,99726.16
2018-08-24T04:18:27.133Z,99724.48
2018-08-24T04:20:55.664Z,99727.89
2018-08-24T04:23:24.445Z,99732.39
2018-08-24T04:25:52.942Z,99730.16
2018-08-24T04:28:21.399Z,99732.25
2018-08-24T04:30:50.088Z,99739.01
2018-08-24T04:33:18.517Z,99741.28
2018-08-24T04:35:46.959Z,99739.95
2018-08-24T04:38:15.436Z,99745.70
2018-08-24T04:40:43.883Z,99749.15
2018-08-24T04:43:12.372Z,99750.55
2018-08-24T04:45:41.204Z,99752.98
2018-08-24T04:48:09.570Z,99753.84
2018-08-24T04:50:38.049Z,99760.13
2018-08-24T04:53:06.581Z,99768.27
2018-08-24T04:55:35.067Z,99768.55
2018-08-24T04:58:03.555Z,99764.66
2018-08-24T05:00:32.211Z,99771.20
2018-08-24T05:03:00.760Z,99768.19
2018-08-24T05:05:29.215Z,99775.05
2018-08-24T05:07:57.908Z,99774.55
2018-08-24T05:10:26.451Z,99776.59
2018-08-24T05:12:54.989Z,99785.60
2018-08-24T05:15:23.577Z,99781.30
2018-08-24T05:17:52.215Z,99786.70
2018-08-24T05:20:20.767Z,99794.05
2018-08-24T05:22:49.483Z,99781.35
2018-08-24T05:25:18.003Z,99786.05
2018-08-24T05:27:46.496Z,99785.38
2018-08-24T05:30:15.192Z,99787.22
2018-08-24T05:32:43.784Z,99793.19
2018-08-24T05:35:12.239Z,99797.12
2018-08-24T05:37:40.675Z,99795.89
2018-08-24T05:40:09.143Z,99798.52
2018-08-24T05:42:37.664Z,99804.34
2018-08-24T05:45:06.819Z,99802.92
2018-08-24T05:47:35.296Z,99800.11
2018-08-24T05:50:04.556Z,99810.02
2018-08-24T05:52:33.079Z,99802.77
2018-08-24T05:55:01.582Z,99809.13
2018-08-24T05:57:30.299Z,99808.57
2018-08-24T05:59:59.043Z,99810.28
2018-08-24T06:02:27.635Z,99807.02
2018-08-24T06:04:56.511Z,99811.06
2018-08-24T06:07:25.340Z,99813.17
2018-08-24T06:09:53.880Z,99814.91
2018-08-24T06:12:22.351Z,99820.34
2018-08-24T06:14:51.122Z,99825.39
2018-08-24T06:17:24.981Z,99831.73
2018-08-24T06:19:53.653Z,99832.72
2018-08-24T06:22:22.198Z,99835.17
2018-08-24T06:24:50.603Z,99835.19
2018-08-24T06:27:19.340Z,99829.77
2018-08-24T06:29:47.756Z,99828.48
2018-08-24T06:32:16.296Z,99819.78
2018-08-24T06:34:44.730Z,99824.06
2018-08-24T06:37:13.411Z,99828.75
2018-08-24T06:39:41.962Z,99828.27
2018-08-24T06:42:10.532Z,99829.88
2018-08-24T06:44:39.020Z,99827.03
2018-08-24T06:47:07.530Z,99831.85
2018-08-24T06:49:36.195Z,99837.58
2018-08-24T06:52:04.733Z,99839.55
2018-08-24T06:54:33.231Z,99842.28
2018-08-24T06:57:01.876Z,99841.56
2018-08-24T06:59:30.349Z,99838.59
2018-08-24T07:01:59.659Z,99846.80
2018-08-24T07:04:28.389Z,99853.59
2018-08-24T07:06:56.917Z,99857.29
2018-08-24T07:09:30.155Z,99856.98
2018-08-24T07:11:58.722Z,99864.14
2018-08-24T07:14:27.311Z,99875.55
2018-08-24T07:16:59.251Z,99878.27
2018-08-24T07:19:28.519Z,99875.47
2018-08-24T07:21:57.231Z,99876.23
2018-08-24T07:24:26.289Z,99866.26
2018-08-24T07:26:55.051Z,99866.39
2018-08-24T07:29:23.496Z,99871.98
2018-08-24T07:31:52.059Z,99867.27
2018-08-24T07:34:20.493Z,99864.98
2018-08-24T07:36:48.983Z,99874.53
2018-08-24T07:39:17.493Z,99874.78
2018-08-24T07:41:46.080Z,99879.53
2018-08-24T07:44:14.499Z,99888.66
2018-08-24T07:46:43.000Z,99876.86
2018-08-24T07:49:11.459Z,99876.66
2018-08-24T07:51:40.184Z,99880.89
2018-08-24T07:54:08.823Z,99882.42
2018-08-24T07:56:37.383Z,99895.09
2018-08-24T07:59:05.847Z,99906.75
2018-08-24T08:01:34.396Z,99914.52
2018-08-24T08:04:04.054Z,99911.92
2018-08-24T08:06:32.596Z,99902.70
2018-08-24T08:09:01.541Z,99903.17
2018-08-24T08:11:35.005Z,99906.43
2018-08-24T08:14:04.474Z,99935.30
2018-08-24T08:16:33.004Z,99933.39
2018-08-24T08:19:01.467Z,99930.08
2018-08-24T08:21:30.041Z,99934.22
2018-08-24T08:23:58.599Z,99933.06
2018-08-24T08:26:27.031Z,99925.25
2018-08-24T08:28:55.815Z,99924.47
2018-08-24T08:31:24.344Z,99930.67
2018-08-24T08:33:52.847Z,99937.27
2018-08-24T08:36:21.519Z,99949.43
2018-08-24T08:38:49.948Z,99948.16
2018-08-24T08:41:18.455Z,99943.52
2018-08-24T08:43:47.148Z,99952.61
2018-08-24T08:46:15.627Z,99969.72
2018-08-24T08:48:44.113Z,99976.05
2018-08-24T08:51:12.631Z,99983.31
2018-08-24T08:53:41.137Z,99979.75
2018-08-24T08:56:09.691Z,99987.13
2018-08-24T08:58:38.363Z,100008.98
2018-08-24T09:01:06.811Z,100007.98
2018-08-24T09:03:35.287Z,100003.23
2018-08-24T09:06:04.024Z,100004.06
2018-08-24T09:08:32.420Z,99997.84
2018-08-24T09:11:01.009Z,99997.75
2018-08-24T09:13:29.627Z,99995.23
2018-08-24T09:15:58.174Z,99997.06
2018-08-24T09:18:31.913Z,99997.67
2018-08-24T09:21:05.799Z,99989.64
2018-08-24T09:23:39.909Z,99985.02
2018-08-24T09:26:13.560Z,99996.75
2018-08-24T09:28:42.577Z,100004.03
2018-08-24T09:31:16.447Z,100009.78
2018-08-24T09:33:45.159Z,100003.61
2018-08-24T09:36:21.692Z,100009.83
2018-08-24T09:38:51.754Z,100001.72
2018-08-24T09:41:20.530Z,99999.44
2018-08-24T09:43:57.967Z,99995.03
2018-08-24T09:46:31.771Z,100009.98
2018-08-24T09:49:05.782Z,100009.41
2018-08-24T09:51:34.152Z,100000.52
2018-08-24T09:54:05.028Z,100009.66
2018-08-24T09:56:34.447Z,99999.19
2018-08-24T09:59:03.340Z,100000.47
2018-08-24T10:01:37.306Z,99988.40
2018-08-24T10:04:11.071Z,99992.57
2018-08-24T10:06:45.166Z,99989.12
2018-08-24T10:09:14.831Z,99992.37
2018-08-24T10:11:43.652Z,99990.98
2018-08-24T10:14:12.892Z,99979.68
2018-08-24T10:16:41.512Z,99978.23
2018-08-24T10:19:14.573Z,99975.31
2018-08-24T10:21:43.011Z,99973.13
2018-08-24T10:24:12.034Z,99961.36
2018-08-24T10:26:41.051Z,99976.03
2018-08-24T10:29:09.674Z,99975.73
2018-08-24T10:31:38.659Z,99980.06
2018-08-24T10:34:07.360Z,99970.27
2018-08-24T10:36:36.015Z,99977.73
2018-08-24T10:39:06.728Z,99968.43
2018-08-24T10:41:35.180Z,99976.19
2018-08-24T10:44:03.748Z,99973.41
2018-08-24T10:46:32.775Z,99966.09
2018-08-24T10:49:01.744Z,99965.27
2018-08-24T10:51:30.231Z,99964.86
2018-08-24T10:53:58.743Z,99961.02
2018-08-24T10:56:27.376Z,99959.53
2018-08-24T10:58:56.059Z,99956.11
2018-08-24T11:01:24.552Z,99953.67
2018-08-24T11:03:52.993Z,99953.31
2018-08-24T11:06:21.496Z,99956.27
2018-08-24T11:08:50.033Z,99951.22
2018-08-24T11:11:18.460Z,99944.84
2018-08-24T11:13:46.887Z,99946.30
2018-08-24T11:16:15.584Z,99939.35
2018-08-24T11:18:44.039Z,99937.72
2018-08-24T11:21:12.484Z,99932.91
2018-08-24T11:23:41.156Z,99940.37
2018-08-24T11:26:13.147Z,99928.25
2018-08-24T11:28:43.640Z,99926.38
2018-08-24T11:31:12.710Z,99923.34
2018-08-24T11:33:43.278Z,99918.87
2018-08-24T11:36:11.991Z,99918.80
2018-08-24T11:38:41.200Z,99921.66
2018-08-24T11:41:15.861Z,99925.56
2018-08-24T11:43:44.547Z,99918.95
2018-08-24T11:46:13.015Z,99913.90
2018-08-24T11:48:41.645Z,99923.61
2018-08-24T11:51:10.177Z,99914.20
2018-08-24T11:53:38.694Z,99900.73
2018-08-24T11:56:07.421Z,99914.65
2018-08-24T11:58:35.991Z,99905.55
2018-08-24T12:01:04.625Z,99897.76
2018-08-24T12:03:33.195Z,99906.83
2018-08-24T12:06:01.667Z,99899.48
2018-08-24T12:08:30.393Z,99900.11
2018-08-24T12:10:58.879Z,99897.55
2018-08-24T12:13:27.302Z,99889.30
2018-08-24T12:15:55.947Z,99895.30
2018-08-24T12:18:24.483Z,99896.52
2018-08-24T12:20:52.955Z,99895.16
2018-08-24T12:23:21.436Z,99892.45
2018-08-24T12:25:49.899Z,99890.88
2018-08-24T12:28:18.359Z,99887.30
2018-08-24T12:30:46.895Z,99884.11
2018-08-24T12:33:15.383Z,99883.69
2018-08-24T12:35:43.887Z,99883.27
2018-08-24T12:38:12.727Z,99874.95
2018-08-24T12:40:41.240Z,99884.75
2018-08-24T12:43:09.807Z,99883.16
2018-08-24T12:45:38.443Z,99874.13
2018-08-24T12:48:06.887Z,99875.67
2018-08-24T12:50:35.353Z,99869.10
2018-08-24T12:53:03.887Z,99868.64
2018-08-24T12:55:32.311Z,99862.66
2018-08-24T12:58:00.772Z,99863.79
2018-08-24T13:00:29.255Z,99870.44
2018-08-24T13:02:57.715Z,99862.19
2018-08-24T13:05:26.315Z,99866.63
2018-08-24T13:07:55.119Z,99861.39
2018-08-24T13:10:23.599Z,99861.31
2018-08-24T13:12:52.538Z,99863.05
2018-08-24T13:15:21.670Z,99866.95
2018-08-24T13:17:50.138Z,99866.80
2018-08-24T13:20:18.564Z,99867.86
2018-08-24T13:22:47.174Z,99870.66
2018-08-24T13:25:15.611Z,99864.34
2018-08-24T13:27:44.100Z,99866.22
2018-08-24T13:30:12.634Z,99859.13
2018-08-24T13:32:41.209Z,99854.00
2018-08-24T13:35:09.692Z,99847.06
2018-08-24T13:37:38.308Z,99852.90
2018-08-24T13:40:07.212Z,99851.58
2018-08-24T13:42:35.731Z,99840.22
2018-08-24T13:45:04.455Z,99845.30
2018-08-24T13:47:33.142Z,99841.65
2018-08-24T13:50:01.623Z,99839.79
2018-08-24T13:52:30.232Z,99837.25
2018-08-24T13:54:58.781Z,99843.16
2018-08-24T13:57:27.224Z,99840.64
2018-08-24T13:59:55.878Z,99835.50
2018-08-24T14:02:24.260Z,99836.16
2018-08-24T14:04:52.726Z,99835.30
2018-08-24T14:07:21.203Z,99831.72
2018-08-24T14:09:49.740Z,99831.70
2018-08-24T14:12:18.243Z,99832.27
2018-08-24T14:14:46.897Z,99828.13
2018-08-24T14:17:15.423Z,99832.63
2018-08-24T14:19:43.831Z,99825.55
2018-08-24T14:22:12.379Z,99824.98
2018-08-24T14:24:40.891Z,99825.32
2018-08-24T14:27:09.619Z,99826.56
2018-08-24T14:29:38.052Z,99822.11
2018-08-24T14:32:06.838Z,99819.83
2018-08-24T14:34:35.272Z,99815.62
2018-08-24T14:37:03.916Z,99820.22
2018-08-24T14:39:32.494Z,99813.33
2018-08-24T14:42:00.907Z,99820.47
2018-08-24T14:44:29.476Z,99818.12
2018-08-24T14:46:57.908Z,99816.19
2018-08-24T14:49:26.355Z,99817.72
2018-08-24T14:51:55.183Z,99815.75
2018-08-24T14:54:23.658Z,99814.92
2018-08-24T14:56:52.154Z,99816.73
2018-08-24T14:59:20.906Z,99814.49
2018-08-24T15:01:49.451Z,99810.87
2018-08-24T15:04:17.936Z,99810.58
2018-08-24T15:06:46.600Z,99807.83
2018-08-24T15:09:15.113Z,99808.57
2018-08-24T15:11:43.599Z,99803.58
2018-08-24T15:14:12.411Z,99808.59
2018-08-24T15:16:40.939Z,99803.45
2018-08-24T15:19:09.343Z,99805.44
2018-08-24T15:21:38.079Z,99802.81
2018-08-24T15:24:07.088Z,99801.81
2018-08-24T15:26:35.612Z,99803.28
2018-08-24T15:29:04.260Z,99789.83
2018-08-24T15:31:32.788Z,99790.84
2018-08-24T15:34:01.283Z,99792.45
2018-08-24T15:36:30.044Z,99789.63
2018-08-24T15:38:58.563Z,99793.41
2018-08-24T15:41:27.051Z,99790.69
2018-08-24T15:43:55.539Z,99785.40
2018-08-24T15:46:24.308Z,99784.69
2018-08-24T15:48:52.672Z,99778.23
2018-08-24T15:51:21.320Z,99777.03
2018-08-24T15:53:49.861Z,99781.08
2018-08-24T15:56:18.343Z,99777.67
2018-08-24T15:58:47.020Z,99776.48
2018-08-24T16:01:15.705Z,99782.18
2018-08-24T16:03:44.227Z,99783.47
2018-08-24T16:06:12.755Z,99780.12
2018-08-24T16:08:41.236Z,99781.86
2018-08-24T16:11:09.671Z,99778.78
2018-08-24T16:13:38.147Z,99781.41
2018-08-24T16:16:07.368Z,99783.31
2018-08-24T16:18:35.823Z,99773.77
2018-08-24T16:21:04.535Z,99771.50
2018-08-24T16:23:33.127Z,99781.73
2018-08-24T16:26:01.605Z,99771.80
2018-08-24T16:28:30.259Z,99775.32
2018-08-24T16:30:58.809Z,99777.52
2018-08-24T16:33:27.252Z,99777.12
2018-08-24T16:35:55.907Z,99775.43
2018-08-24T16:38:24.355Z,99785.98
2018-08-24T16:40:52.863Z,99784.48
2018-08-24T16:43:21.380Z,99784.05
2018-08-24T16:45:49.804Z,99782.49
2018-08-24T16:48:18.327Z,99781.86
2018-08-24T16:50:46.865Z,99787.81
2018-08-24T16:53:15.295Z,99786.66
2018-08-24T16:55:43.775Z,99787.44
2018-08-24T16:58:13.240Z,99789.13
2018-08-24T17:00:41.663Z,99778.84
2018-08-24T17:03:10.244Z,99780.92
2018-08-24T17:05:39.107Z,99779.09
2018-08-24T17:08:07.980Z,99780.68
2018-08-24T17:10:36.543Z,99782.42
2018-08-24T17:13:07.864Z,99787.44
2018-08-24T17:15:36.405Z,99781.55
2018-08-24T17:18:05.203Z,99786.26
2018-08-24T17:20:39.709Z,99782.08
2018-08-24T17:23:09.857Z,99772.62
2018-08-24T17:25:39.195Z,99775.17
2018-08-24T17:28:07.709Z,99775.88
2018-08-24T17:30:36.128Z,99779.06
2018-08-24T17:33:04.743Z,99783.84
2018-08-24T17:35:33.324Z,99782.71
2018-08-24T17:38:01.768Z,99788.63
2018-08-24T17:40:33.077Z,99789.30
2018-08-24T17:43:03.317Z,99788.57
2018-08-24T17:45:32.315Z,99786.81
2018-08-24T17:48:00.890Z,99794.92
2018-08-24T17:50:29.352Z,99805.38
2018-08-24T17:52:57.831Z,99812.64
2018-08-24T17:55:26.327Z,99814.87
2018-08-24T17:57:54.817Z,99813.28
2018-08-24T18:00:23.599Z,99815.19
2018-08-24T18:02:52.315Z,99809.52
2018-08-24T18:05:20.825Z,99812.91
2018-08-24T18:07:49.416Z,99814.41
2018-08-24T18:10:17.924Z,99812.41
2018-08-24T18:12:46.405Z,99813.66
2018-08-24T18:15:15.080Z,99814.12
2018-08-24T18:17:43.425Z,99816.23
2018-08-24T18:20:11.884Z,99823.61
2018-08-24T18:22:40.674Z,99819.28
2018-08-24T18:25:09.188Z,99827.11
2018-08-24T18:27:37.647Z,99828.78
2018-08-24T18:30:06.439Z,99834.81
2018-08-24T18:32:34.887Z,99826.42
2018-08-24T18:35:03.526Z,99839.09
2018-08-24T18:37:32.111Z,99841.27
2018-08-24T18:40:00.550Z,99843.45
2018-08-24T18:42:29.076Z,99849.62
2018-08-24T18:44:57.735Z,99854.48
2018-08-24T18:47:26.382Z,99856.27
2018-08-24T18:49:54.962Z,99853.96
2018-08-24T18:52:23.644Z,99851.13
2018-08-24T18:54:52.157Z,99857.59
2018-08-24T18:57:20.743Z,99856.87
2018-08-24T18:59:49.498Z,99864.68
2018-08-24T19:02:18.112Z,99859.40
2018-08-24T19:04:46.623Z,99873.64
2018-08-24T19:07:15.268Z,99865.81
2018-08-24T19:09:43.988Z,99870.53
2018-08-24T19:12:18.085Z,99874.75
2018-08-24T19:14:47.137Z,99875.15
2018-08-24T19:17:21.286Z,99885.63
2018-08-24T19:19:55.489Z,99884.98
2018-08-24T19:22:25.061Z,99898.18
2018-08-24T19:24:54.116Z,99898.38
2018-08-24T19:27:27.282Z,99898.62
2018-08-24T19:30:01.238Z,99904.88
2018-08-24T19:32:30.341Z,99908.31
2018-08-24T19:34:59.417Z,99905.05
2018-08-24T19:37:28.498Z,99909.45
2018-08-24T19:40:02.629Z,99912.34
2018-08-24T19:42:32.220Z,99910.07
2018-08-24T19:45:01.970Z,99924.87
2018-08-24T19:47:36.222Z,99927.95
2018-08-24T19:50:05.395Z,99934.13
2018-08-24T19:52:34.211Z,99930.34
2018-08-24T19:55:03.204Z,99932.20
2018-08-24T19:57:37.359Z,99937.70
2018-08-24T20:00:06.574Z,99938.50
2018-08-24T20:02:35.443Z,99951.01
2018-08-24T20:05:04.865Z,99944.43
2018-08-24T20:07:38.939Z,99936.72
2018-08-24T20:10:10.882Z,99942.06
2018-08-24T20:12:39.871Z,99946.31
2018-08-24T20:15:14.277Z,99945.52
2018-08-24T20:17:44.210Z,99944.95
2018-08-24T20:20:14.180Z,99953.80
2018-08-24T20:22:43.182Z,99956.20
2018-08-24T20:25:12.030Z,99956.80
2018-08-24T20:27:41.305Z,99949.66
2018-08-24T20:30:10.210Z,99957.92
2018-08-24T20:32:39.024Z,99953.23
2018-08-24T20:35:08.158Z,99954.25
2018-08-24T20:37:36.933Z,99949.33
2018-08-24T20:40:06.403Z,99945.75
2018-08-24T20:42:35.429Z,99951.30
2018-08-24T20:45:04.188Z,99954.19
2018-08-24T20:47:32.847Z,99949.88
2018-08-24T20:50:01.552Z,99958.94
2018-08-24T20:52:30.006Z,99953.55
2018-08-24T20:54:58.691Z,99943.73
2018-08-24T20:57:27.387Z,99949.84
2018-08-24T20:59:55.905Z,99940.67
2018-08-24T21:02:24.384Z,99943.03
2018-08-24T21:04:53.068Z,99941.68
2018-08-24T21:07:21.684Z,99940.18
2018-08-24T21:09:50.128Z,99946.05
2018-08-24T21:12:18.739Z,99948.84
2018-08-24T21:14:47.285Z,99952.31
2018-08-24T21:17:15.788Z,99945.20
2018-08-24T21:19:44.292Z,99941.08
2018-08-24T21:22:12.750Z,99939.70
2018-08-24T21:24:41.315Z,99942.39
2018-08-24T21:27:09.947Z,99941.03
2018-08-24T21:29:38.343Z,99945.48
2018-08-24T21:32:06.767Z,99943.38
2018-08-24T21:34:35.400Z,99939.52
2018-08-24T21:37:03.856Z,99940.82
2018-08-24T21:39:32.320Z,99939.99
2018-08-24T21:42:00.843Z,99936.55
2018-08-24T21:44:29.300Z,99938.07
2018-08-24T21:46:57.791Z,99937.45
2018-08-24T21:49:26.472Z,99939.99
2018-08-24T21:51:55.084Z,99944.17
2018-08-24T21:54:23.607Z,99935.77
2018-08-24T21:56:52.243Z,99937.88
2018-08-24T21:59:20.711Z,99941.27
2018-08-24T22:01:49.211Z,99932.72
2018-08-24T22:04:17.832Z,99926.24
2018-08-24T22:06:46.252Z,99931.57
2018-08-24T22:09:14.788Z,99930.50
2018-08-24T22:11:43.411Z,99933.23
2018-08-24T22:14:12.710Z,99930.62
2018-08-24T22:16:41.384Z,99938.31
2018-08-24T22:19:10.024Z,99931.67
2018-08-24T22:21:38.603Z,99936.11
2018-08-24T22:24:07.143Z,99943.41
2018-08-24T22:26:35.907Z,99933.63
2018-08-24T22:29:04.386Z,99939.81
2018-08-24T22:31:32.835Z,99932.77
2018-08-24T22:34:01.519Z,99939.97
2018-08-24T22:36:29.967Z,99934.39
2018-08-24T22:38:58.363Z,99933.05
2018-08-24T22:41:26.947Z,99926.31
2018-08-24T22:43:55.500Z,99918.53
2018-08-24T22:46:23.983Z,99919.09
2018-08-24T22:48:52.574Z,99912.59
2018-08-24T22:51:21.080Z,99908.95
2018-08-24T22:53:49.607Z,99908.36
2018-08-24T22:56:18.111Z,99905.12
2018-08-24T22:58:46.580Z,99910.09
2018-08-24T23:01:15.055Z,99917.56
2018-08-24T23:03:43.580Z,99920.84
2018-08-24T23:06:12.023Z,99923.40
2018-08-24T23:08:40.544Z,99917.09
2018-08-24T23:11:09.059Z,99910.80
2018-08-24T23:13:37.514Z,99912.23
2018-08-24T23:16:06.180Z,99914.89
2018-08-24T23:18:34.895Z,99920.05
2018-08-24T23:21:03.300Z,99912.59
2018-08-24T23:23:31.781Z,99914.83
2018-08-24T23:26:00.264Z,99911.64
2018-08-24T23:28:28.810Z,99910.49
2018-08-24T23:30:57.256Z,99904.08
2018-08-24T23:33:26.084Z,99904.82
2018-08-24T23:35:54.675Z,99902.63
2018-08-24T23:38:23.324Z,99906.38
2018-08-24T23:40:52.017Z,99899.83
2018-08-24T23:43:20.463Z,99897.70
2018-08-24T23:45:48.924Z,99898.31
2018-08-24T23:48:17.545Z,99895.13
2018-08-24T23:50:45.981Z,99901.55
2018-08-24T23:53:14.420Z,99895.14
2018-08-24T23:55:43.051Z,99898.46
2018-08-24T23:58:11.547Z,99894.19
